sensor_id;sensor_type;location;lat;lon;timestamp;pressure;altitude;pressure_sealevel;temperature;humidity
76374;BME280;65197;50.164;8.012;2023-04-07T00:02:13;95346.53;;;2.92;100.00
76374;BME280;65197;50.164;8.012;2023-04-07T00:04:38;95373.97;;;3.05;100.00
76374;BME280;65197;50.164;8.012;2023-04-07T00:07:03;95371.44;;;3.04;100.00
76374;BME280;65197;50.164;8.012;2023-04-07T00:09:29;95368.97;;;3.02;100.00
76374;BME280;65197;50.164;8.012;2023-04-07T00:11:54;95368.06;;;3.05;100.00
76374;BME280;65197;50.164;8.012;2023-04-07T00:14:20;95373.97;;;3.05;100.00
76374;BME280;65197;50.164;8.012;2023-04-07T00:16:45;95374.69;;;3.09;100.00
76374;BME280;65197;50.164;8.012;2023-04-07T00:19:11;95362.91;;;3.10;100.00
76374;BME280;65197;50.164;8.012;2023-04-07T00:21:36;95362.91;;;3.10;100.00
76374;BME280;65197;50.164;8.012;2023-04-07T00:24:01;95355.41;;;3.08;100.00
76374;BME280;65197;50.164;8.012;2023-04-07T00:26:27;95351.34;;;3.02;100.00
76374;BME280;65197;50.164;8.012;2023-04-07T00:28:56;95335.50;;;2.97;100.00
76374;BME280;65197;50.164;8.012;2023-04-07T00:31:22;95343.72;;;3.05;100.00
76374;BME280;65197;50.164;8.012;2023-04-07T00:33:47;95346.97;;;3.11;100.00
76374;BME280;65197;50.164;8.012;2023-04-07T00:36:13;95342.75;;;3.11;100.00
76374;BME280;65197;50.164;8.012;2023-04-07T00:38:39;95331.97;;;3.04;100.00
76374;BME280;65197;50.164;8.012;2023-04-07T00:41:04;95331.84;;;3.11;100.00
76374;BME280;65197;50.164;8.012;2023-04-07T00:43:30;95318.59;;;3.02;100.00
76374;BME280;65197;50.164;8.012;2023-04-07T00:45:55;95341.78;;;3.17;100.00
76374;BME280;65197;50.164;8.012;2023-04-07T00:48:21;95315.16;;;3.06;100.00
76374;BME280;65197;50.164;8.012;2023-04-07T00:50:46;95328.41;;;3.15;100.00
76374;BME280;65197;50.164;8.012;2023-04-07T00:53:12;95321.78;;;3.11;100.00
76374;BME280;65197;50.164;8.012;2023-04-07T00:55:37;95320.09;;;3.10;100.00
76374;BME280;65197;50.164;8.012;2023-04-07T00:58:03;95300.16;;;3.00;100.00
76374;BME280;65197;50.164;8.012;2023-04-07T01:00:37;95310.03;;;3.10;100.00
76374;BME280;65197;50.164;8.012;2023-04-07T01:03:13;95316.66;;;3.14;100.00
76374;BME280;65197;50.164;8.012;2023-04-07T01:06:04;95313.28;;;3.15;100.00
76374;BME280;65197;50.164;8.012;2023-04-07T01:08:52;95313.19;;;3.18;100.00
76374;BME280;65197;50.164;8.012;2023-04-07T01:11:41;95301.53;;;3.14;100.00
76374;BME280;65197;50.164;8.012;2023-04-07T01:14:09;95316.59;;;3.17;100.00
76374;BME280;65197;50.164;8.012;2023-04-07T01:16:48;95310.69;;;3.18;100.00
76374;BME280;65197;50.164;8.012;2023-04-07T01:19:36;95312.31;;;3.20;100.00
76374;BME280;65197;50.164;8.012;2023-04-07T01:22:11;95297.25;;;3.17;100.00
76374;BME280;65197;50.164;8.012;2023-04-07T01:27:33;95248.44;;;2.87;100.00
76374;BME280;65197;50.164;8.012;2023-04-07T01:30:02;95289.75;;;3.16;100.00
76374;BME280;65197;50.164;8.012;2023-04-07T01:32:29;95284.72;;;3.16;100.00
76374;BME280;65197;50.164;8.012;2023-04-07T01:34:56;95293.03;;;3.18;100.00
76374;BME280;65197;50.164;8.012;2023-04-07T01:37:22;95279.72;;;3.13;100.00
76374;BME280;65197;50.164;8.012;2023-04-07T01:39:48;95294.63;;;3.22;100.00
76374;BME280;65197;50.164;8.012;2023-04-07T01:42:14;95272.97;;;3.15;100.00
76374;BME280;65197;50.164;8.012;2023-04-07T01:44:41;95270.47;;;3.15;100.00
76374;BME280;65197;50.164;8.012;2023-04-07T01:47:07;95277.06;;;3.19;100.00
76374;BME280;65197;50.164;8.012;2023-04-07T01:49:34;95280.34;;;3.22;100.00
76374;BME280;65197;50.164;8.012;2023-04-07T01:52:01;95277.81;;;3.24;100.00
76374;BME280;65197;50.164;8.012;2023-04-07T01:54:27;95272.81;;;3.21;100.00
76374;BME280;65197;50.164;8.012;2023-04-07T01:56:53;95277.81;;;3.24;100.00
76374;BME280;65197;50.164;8.012;2023-04-07T01:59:18;95272.00;;;3.20;100.00
76374;BME280;65197;50.164;8.012;2023-04-07T02:01:45;95274.41;;;3.25;100.00
76374;BME280;65197;50.164;8.012;2023-04-07T02:04:28;95261.16;;;3.17;100.00
76374;BME280;65197;50.164;8.012;2023-04-07T02:07:00;95244.63;;;3.06;100.00
76374;BME280;65197;50.164;8.012;2023-04-07T02:09:29;95284.50;;;3.25;100.00
76374;BME280;65197;50.164;8.012;2023-04-07T02:11:57;95276.94;;;3.25;100.00
76374;BME280;65197;50.164;8.012;2023-04-07T02:14:24;95280.31;;;3.24;100.00
76374;BME280;65197;50.164;8.012;2023-04-07T02:16:51;95272.81;;;3.21;100.00
76374;BME280;65197;50.164;8.012;2023-04-07T02:19:17;95276.88;;;3.26;100.00
76374;BME280;65197;50.164;8.012;2023-04-07T02:21:44;95271.03;;;3.26;100.00
76374;BME280;65197;50.164;8.012;2023-04-07T02:24:10;95267.84;;;3.18;100.00
76374;BME280;65197;50.164;8.012;2023-04-07T02:26:36;95266.97;;;3.20;100.00
76374;BME280;65197;50.164;8.012;2023-04-07T02:29:02;95271.09;;;3.23;100.00
76374;BME280;65197;50.164;8.012;2023-04-07T02:31:28;95275.19;;;3.28;100.00
76374;BME280;65197;50.164;8.012;2023-04-07T02:33:53;95272.66;;;3.27;100.00
76374;BME280;65197;50.164;8.012;2023-04-07T02:36:19;95267.63;;;3.27;100.00
76374;BME280;65197;50.164;8.012;2023-04-07T02:38:44;95271.75;;;3.31;100.00
76374;BME280;65197;50.164;8.012;2023-04-07T02:41:10;95265.00;;;3.31;100.00
76374;BME280;65197;50.164;8.012;2023-04-07T02:43:35;95258.41;;;3.26;100.00
76374;BME280;65197;50.164;8.012;2023-04-07T02:46:01;95252.66;;;3.21;100.00
76374;BME280;65197;50.164;8.012;2023-04-07T02:48:26;95264.13;;;3.34;100.00
76374;BME280;65197;50.164;8.012;2023-04-07T02:50:51;95258.38;;;3.27;100.00
76374;BME280;65197;50.164;8.012;2023-04-07T02:53:17;95244.94;;;3.28;100.00
76374;BME280;65197;50.164;8.012;2023-04-07T02:55:42;95262.25;;;3.41;100.00
76374;BME280;65197;50.164;8.012;2023-04-07T02:58:08;95251.41;;;3.37;100.00
76374;BME280;65197;50.164;8.012;2023-04-07T03:00:33;95254.78;;;3.38;100.00
76374;BME280;65197;50.164;8.012;2023-04-07T03:02:58;95260.66;;;3.38;100.00
76374;BME280;65197;50.164;8.012;2023-04-07T03:05:24;95253.97;;;3.36;100.00
76374;BME280;65197;50.164;8.012;2023-04-07T03:07:49;95245.53;;;3.38;100.00
76374;BME280;65197;50.164;8.012;2023-04-07T03:10:15;95248.06;;;3.37;100.00
76374;BME280;65197;50.164;8.012;2023-04-07T03:12:42;95262.97;;;3.46;100.00
76374;BME280;65197;50.164;8.012;2023-04-07T03:15:08;95252.16;;;3.42;100.00
76374;BME280;65197;50.164;8.012;2023-04-07T03:17:33;95244.53;;;3.44;100.00
76374;BME280;65197;50.164;8.012;2023-04-07T03:19:59;95242.13;;;3.39;100.00
76374;BME280;65197;50.164;8.012;2023-04-07T03:22:25;95242.22;;;3.36;100.00
76374;BME280;65197;50.164;8.012;2023-04-07T03:24:50;95248.81;;;3.40;100.00
76374;BME280;65197;50.164;8.012;2023-04-07T03:27:15;95245.38;;;3.44;100.00
76374;BME280;65197;50.164;8.012;2023-04-07T03:29:41;95240.41;;;3.41;100.00
76374;BME280;65197;50.164;8.012;2023-04-07T03:32:07;95230.25;;;3.44;100.00
76374;BME280;65197;50.164;8.012;2023-04-07T03:34:32;95246.72;;;3.57;100.00
76374;BME280;65197;50.164;8.012;2023-04-07T03:36:58;95221.81;;;3.45;100.00
76374;BME280;65197;50.164;8.012;2023-04-07T03:39:23;95243.50;;;3.52;100.00
76374;BME280;65197;50.164;8.012;2023-04-07T03:41:48;95250.19;;;3.53;100.00
76374;BME280;65197;50.164;8.012;2023-04-07T03:44:14;95243.41;;;3.55;100.00
76374;BME280;65197;50.164;8.012;2023-04-07T03:46:39;95234.31;;;3.50;100.00
76374;BME280;65197;50.164;8.012;2023-04-07T03:49:05;95234.16;;;3.56;100.00
76374;BME280;65197;50.164;8.012;2023-04-07T03:51:31;95244.78;;;3.67;100.00
76374;BME280;65197;50.164;8.012;2023-04-07T03:53:59;95241.44;;;3.67;100.00
76374;BME280;65197;50.164;8.012;2023-04-07T03:56:24;95226.56;;;3.57;100.00
76374;BME280;65197;50.164;8.012;2023-04-07T03:58:50;95233.31;;;3.55;100.00
76374;BME280;65197;50.164;8.012;2023-04-07T04:01:15;95238.13;;;3.65;100.00
76374;BME280;65197;50.164;8.012;2023-04-07T04:03:42;95221.63;;;3.53;100.00
76374;BME280;65197;50.164;8.012;2023-04-07T04:06:07;95238.22;;;3.62;100.00
76374;BME280;65197;50.164;8.012;2023-04-07T04:08:33;95241.50;;;3.64;100.00
76374;BME280;65197;50.164;8.012;2023-04-07T04:10:58;95239.88;;;3.63;100.00
76374;BME280;65197;50.164;8.012;2023-04-07T04:13:23;95237.34;;;3.63;100.00
76374;BME280;65197;50.164;8.012;2023-04-07T04:15:49;95238.13;;;3.65;100.00
76374;BME280;65197;50.164;8.012;2023-04-07T04:18:15;95234.81;;;3.63;100.00
76374;BME280;65197;50.164;8.012;2023-04-07T04:20:41;95221.47;;;3.59;100.00
76374;BME280;65197;50.164;8.012;2023-04-07T04:23:07;95227.50;;;3.53;100.00
76374;BME280;65197;50.164;8.012;2023-04-07T04:25:32;95236.56;;;3.61;100.00
76374;BME280;65197;50.164;8.012;2023-04-07T04:27:58;95234.22;;;3.53;100.00
76374;BME280;65197;50.164;8.012;2023-04-07T04:30:23;95233.16;;;3.62;100.00
76374;BME280;65197;50.164;8.012;2023-04-07T04:32:48;95237.34;;;3.63;100.00
76374;BME280;65197;50.164;8.012;2023-04-07T04:35:14;95230.66;;;3.60;100.00
76374;BME280;65197;50.164;8.012;2023-04-07T04:37:39;95237.28;;;3.64;100.00
76374;BME280;65197;50.164;8.012;2023-04-07T04:40:05;95241.44;;;3.67;100.00
76374;BME280;65197;50.164;8.012;2023-04-07T04:42:33;95233.00;;;3.68;100.00
76374;BME280;65197;50.164;8.012;2023-04-07T04:44:58;95239.69;;;3.69;100.00
76374;BME280;65197;50.164;8.012;2023-04-07T04:47:24;95237.22;;;3.67;100.00
76374;BME280;65197;50.164;8.012;2023-04-07T04:49:49;95237.28;;;3.66;100.00
76374;BME280;65197;50.164;8.012;2023-04-07T04:52:15;95235.72;;;3.60;100.00
76374;BME280;65197;50.164;8.012;2023-04-07T04:54:40;95241.44;;;3.67;100.00
76374;BME280;65197;50.164;8.012;2023-04-07T04:57:05;95248.88;;;3.71;100.00
76374;BME280;65197;50.164;8.012;2023-04-07T04:59:32;95246.41;;;3.70;100.00
76374;BME280;65197;50.164;8.012;2023-04-07T05:01:58;95250.66;;;3.68;100.00
76374;BME280;65197;50.164;8.012;2023-04-07T05:04:23;95258.88;;;3.74;100.00
76374;BME280;65197;50.164;8.012;2023-04-07T05:06:49;95250.59;;;3.69;100.00
76374;BME280;65197;50.164;8.012;2023-04-07T05:09:14;95249.88;;;3.66;100.00
76374;BME280;65197;50.164;8.012;2023-04-07T05:11:40;95253.09;;;3.71;100.00
76374;BME280;65197;50.164;8.012;2023-04-07T05:14:06;95267.28;;;3.75;100.00
76374;BME280;65197;50.164;8.012;2023-04-07T05:16:31;95250.59;;;3.69;100.00
76374;BME280;65197;50.164;8.012;2023-04-07T05:18:57;95257.41;;;3.67;100.00
76374;BME280;65197;50.164;8.012;2023-04-07T05:21:22;95246.56;;;3.64;100.00
76374;BME280;65197;50.164;8.012;2023-04-07T05:23:47;95247.38;;;3.64;100.00
76374;BME280;65197;50.164;8.012;2023-04-07T05:26:13;95247.34;;;3.66;100.00
76374;BME280;65197;50.164;8.012;2023-04-07T05:28:38;95259.91;;;3.67;100.00
76374;BME280;65197;50.164;8.012;2023-04-07T05:31:03;95248.13;;;3.68;100.00
76374;BME280;65197;50.164;8.012;2023-04-07T05:33:29;95253.13;;;3.69;100.00
76374;BME280;65197;50.164;8.012;2023-04-07T05:35:54;95258.69;;;3.82;100.00
76374;BME280;65197;50.164;8.012;2023-04-07T05:38:19;95257.78;;;3.85;100.00
76374;BME280;65197;50.164;8.012;2023-04-07T05:40:45;95263.56;;;3.88;100.00
76374;BME280;65197;50.164;8.012;2023-04-07T05:43:11;95241.28;;;3.73;100.00
76374;BME280;65197;50.164;8.012;2023-04-07T05:45:36;95261.22;;;3.82;100.00
76374;BME280;65197;50.164;8.012;2023-04-07T05:48:02;95259.56;;;3.81;100.00
76374;BME280;65197;50.164;8.012;2023-04-07T05:50:27;95263.59;;;3.87;100.00
76374;BME280;65197;50.164;8.012;2023-04-07T05:52:53;95264.53;;;3.84;100.00
76374;BME280;65197;50.164;8.012;2023-04-07T05:55:18;95265.22;;;3.89;100.00
76374;BME280;65197;50.164;8.012;2023-04-07T05:57:44;95267.59;;;3.95;100.00
76374;BME280;65197;50.164;8.012;2023-04-07T06:00:09;95259.31;;;3.90;100.00
76374;BME280;65197;50.164;8.012;2023-04-07T06:02:35;95268.47;;;3.94;100.00
76374;BME280;65197;50.164;8.012;2023-04-07T06:05:01;95260.97;;;3.91;100.00
76374;BME280;65197;50.164;8.012;2023-04-07T06:07:26;95254.97;;;3.95;100.00
76374;BME280;65197;50.164;8.012;2023-04-07T06:09:52;95260.97;;;3.91;100.00
76374;BME280;65197;50.164;8.012;2023-04-07T06:12:17;95271.88;;;3.92;100.00
76374;BME280;65197;50.164;8.012;2023-04-07T06:14:49;95260.38;;;3.81;100.00
76374;BME280;65197;50.164;8.012;2023-04-07T06:17:15;95275.22;;;3.92;100.00
76374;BME280;65197;50.164;8.012;2023-04-07T06:19:41;95269.09;;;4.02;100.00
76374;BME280;65197;50.164;8.012;2023-04-07T06:22:06;95275.69;;;4.06;100.00
76374;BME280;65197;50.164;8.012;2023-04-07T06:24:32;95276.53;;;4.07;100.00
76374;BME280;65197;50.164;8.012;2023-04-07T06:26:57;95281.47;;;4.10;100.00
76374;BME280;65197;50.164;8.012;2023-04-07T06:29:25;95266.47;;;4.05;100.00
76374;BME280;65197;50.164;8.012;2023-04-07T06:31:51;95263.94;;;4.05;100.00
76374;BME280;65197;50.164;8.012;2023-04-07T06:34:16;95274.59;;;4.17;100.00
76374;BME280;65197;50.164;8.012;2023-04-07T06:36:42;95276.22;;;4.18;100.00
76374;BME280;65197;50.164;8.012;2023-04-07T06:39:07;95280.34;;;4.22;100.00
76374;BME280;65197;50.164;8.012;2023-04-07T06:41:33;95281.28;;;4.18;100.00
76374;BME280;65197;50.164;8.012;2023-04-07T06:43:58;95278.69;;;4.21;100.00
76374;BME280;65197;50.164;8.012;2023-04-07T06:46:24;95285.44;;;4.19;100.00
76374;BME280;65197;50.164;8.012;2023-04-07T06:48:51;95277.00;;;4.20;100.00
76374;BME280;65197;50.164;8.012;2023-04-07T06:51:16;95286.94;;;4.26;100.00
76374;BME280;65197;50.164;8.012;2023-04-07T06:53:42;95265.34;;;4.16;100.00
76374;BME280;65197;50.164;8.012;2023-04-07T06:56:09;95280.84;;;4.33;100.00
76374;BME280;65197;50.164;8.012;2023-04-07T06:58:36;95294.16;;;4.40;100.00
76374;BME280;65197;50.164;8.012;2023-04-07T07:01:02;95281.47;;;4.41;100.00
76374;BME280;65197;50.164;8.012;2023-04-07T07:03:28;95270.63;;;4.38;100.00
76374;BME280;65197;50.164;8.012;2023-04-07T07:05:54;95282.84;;;4.51;100.00
76374;BME280;65197;50.164;8.012;2023-04-07T07:08:24;95277.88;;;4.48;100.00
76374;BME280;65197;50.164;8.012;2023-04-07T07:10:50;95279.81;;;4.40;100.00
76374;BME280;65197;50.164;8.012;2023-04-07T07:13:17;95296.28;;;4.53;100.00
76374;BME280;65197;50.164;8.012;2023-04-07T07:15:44;95293.03;;;4.48;100.00
76374;BME280;65197;50.164;8.012;2023-04-07T07:18:11;95298.09;;;4.48;100.00
76374;BME280;65197;50.164;8.012;2023-04-07T07:20:36;95299.06;;;4.44;100.00
76374;BME280;65197;50.164;8.012;2023-04-07T07:23:02;95293.88;;;4.49;100.00
76374;BME280;65197;50.164;8.012;2023-04-07T07:25:28;95291.94;;;4.57;100.00
76374;BME280;65197;50.164;8.012;2023-04-07T07:27:54;95310.38;;;4.60;100.00
76374;BME280;65197;50.164;8.012;2023-04-07T07:30:21;95292.97;;;4.51;100.00
76374;BME280;65197;50.164;8.012;2023-04-07T07:32:47;95291.22;;;4.53;100.00
76374;BME280;65197;50.164;8.012;2023-04-07T07:35:13;95300.41;;;4.56;100.00
76374;BME280;65197;50.164;8.012;2023-04-07T07:37:38;95302.78;;;4.60;100.00
76374;BME280;65197;50.164;8.012;2023-04-07T07:40:04;95279.56;;;4.49;100.00
76374;BME280;65197;50.164;8.012;2023-04-07T07:42:30;95301.19;;;4.58;100.00
76374;BME280;65197;50.164;8.012;2023-04-07T07:44:56;95301.91;;;4.62;100.00
76374;BME280;65197;50.164;8.012;2023-04-07T07:47:21;95315.84;;;4.75;100.00
76374;BME280;65197;50.164;8.012;2023-04-07T07:49:47;95306.69;;;4.72;100.00
76374;BME280;65197;50.164;8.012;2023-04-07T07:52:13;95317.34;;;4.82;100.00
76374;BME280;65197;50.164;8.012;2023-04-07T07:54:38;95318.22;;;4.81;100.00
76374;BME280;65197;50.164;8.012;2023-04-07T07:57:04;95317.59;;;4.73;100.00
76374;BME280;65197;50.164;8.012;2023-04-07T07:59:30;95323.44;;;4.75;100.00
76374;BME280;65197;50.164;8.012;2023-04-07T08:01:56;95329.16;;;4.80;100.00
76374;BME280;65197;50.164;8.012;2023-04-07T08:04:21;95314.13;;;4.77;100.00
76374;BME280;65197;50.164;8.012;2023-04-07T08:06:47;95332.38;;;4.87;100.00
76374;BME280;65197;50.164;8.012;2023-04-07T08:09:13;95328.41;;;4.78;100.00
76374;BME280;65197;50.164;8.012;2023-04-07T08:11:39;95335.03;;;4.82;100.00
76374;BME280;65197;50.164;8.012;2023-04-07T08:14:05;95329.16;;;4.80;100.00
76374;BME280;65197;50.164;8.012;2023-04-07T08:16:31;95339.19;;;4.83;100.00
76374;BME280;65197;50.164;8.012;2023-04-07T08:18:56;95341.78;;;4.81;100.00
76374;BME280;65197;50.164;8.012;2023-04-07T08:21:21;95335.06;;;4.80;100.00
76374;BME280;65197;50.164;8.012;2023-04-07T08:23:47;95349.94;;;4.90;100.00
76374;BME280;65197;50.164;8.012;2023-04-07T08:26:12;95350.69;;;4.93;100.00
76374;BME280;65197;50.164;8.012;2023-04-07T08:28:38;95352.44;;;4.91;100.00
76374;BME280;65197;50.164;8.012;2023-04-07T08:31:03;95344.19;;;4.86;100.00
76374;BME280;65197;50.164;8.012;2023-04-07T08:33:29;95353.22;;;4.93;100.00
76374;BME280;65197;50.164;8.012;2023-04-07T08:35:55;95352.44;;;4.91;100.00
76374;BME280;65197;50.164;8.012;2023-04-07T08:38:21;95354.28;;;4.86;100.00
76374;BME280;65197;50.164;8.012;2023-04-07T08:40:48;95352.53;;;4.88;100.00
76374;BME280;65197;50.164;8.012;2023-04-07T08:43:19;95326.13;;;4.69;100.00
76374;BME280;65197;50.164;8.012;2023-04-07T08:45:45;95354.19;;;4.89;100.00
76374;BME280;65197;50.164;8.012;2023-04-07T08:48:16;95359.34;;;4.86;100.00
76374;BME280;65197;50.164;8.012;2023-04-07T08:50:44;95355.84;;;4.90;100.00
76374;BME280;65197;50.164;8.012;2023-04-07T08:53:12;95357.50;;;4.91;100.00
76374;BME280;65197;50.164;8.012;2023-04-07T08:55:40;95352.34;;;4.94;100.00
76374;BME280;65197;50.164;8.012;2023-04-07T08:58:05;95355.41;;;5.05;100.00
76374;BME280;65197;50.164;8.012;2023-04-07T09:00:38;95358.75;;;5.06;100.00
76374;BME280;65197;50.164;8.012;2023-04-07T09:03:05;95358.75;;;5.06;100.00
76374;BME280;65197;50.164;8.012;2023-04-07T09:05:31;95367.16;;;5.06;100.00
76374;BME280;65197;50.164;8.012;2023-04-07T09:07:57;95349.13;;;4.89;100.00
76374;BME280;65197;50.164;8.012;2023-04-07T09:10:22;95368.16;;;5.01;100.00
76374;BME280;65197;50.164;8.012;2023-04-07T09:12:48;95381.63;;;5.01;100.00
76374;BME280;65197;50.164;8.012;2023-04-07T09:15:13;95380.94;;;4.96;100.00
76374;BME280;65197;50.164;8.012;2023-04-07T09:17:39;95367.59;;;4.91;100.00
76374;BME280;65197;50.164;8.012;2023-04-07T09:20:05;95384.22;;;4.98;100.00
76374;BME280;65197;50.164;8.012;2023-04-07T09:22:37;95390.03;;;5.02;100.00
76374;BME280;65197;50.164;8.012;2023-04-07T09:27:35;95389.38;;;4.95;100.00
76374;BME280;65197;50.164;8.012;2023-04-07T09:30:13;95364.13;;;4.95;100.00
76374;BME280;65197;50.164;8.012;2023-04-07T09:32:40;95385.47;;;5.15;100.00
76374;BME280;65197;50.164;8.012;2023-04-07T09:35:06;95385.25;;;5.21;100.00
76374;BME280;65197;50.164;8.012;2023-04-07T09:37:31;95368.81;;;5.07;100.00
76374;BME280;65197;50.164;8.012;2023-04-07T09:39:57;95395.38;;;5.21;100.00
76374;BME280;65197;50.164;8.012;2023-04-07T09:42:22;95375.94;;;5.23;100.00
76374;BME280;65197;50.164;8.012;2023-04-07T09:44:47;95402.34;;;5.41;100.00
76374;BME280;65197;50.164;8.012;2023-04-07T09:47:13;95387.47;;;5.31;100.00
76374;BME280;65197;50.164;8.012;2023-04-07T09:49:49;95395.03;;;5.33;100.00
76374;BME280;65197;50.164;8.012;2023-04-07T09:52:16;95382.31;;;5.62;100.00
76374;BME280;65197;50.164;8.012;2023-04-07T09:54:45;95398.69;;;5.77;100.00
76374;BME280;65197;50.164;8.012;2023-04-07T09:57:11;95386.59;;;6.13;100.00
76374;BME280;65197;50.164;8.012;2023-04-07T09:59:39;95389.22;;;6.60;100.00
76374;BME280;65197;50.164;8.012;2023-04-07T10:02:07;95390.75;;;6.89;100.00
76374;BME280;65197;50.164;8.012;2023-04-07T10:04:32;95383.47;;;7.48;100.00
76374;BME280;65197;50.164;8.012;2023-04-07T10:06:58;95390.28;;;7.02;100.00
76374;BME280;65197;50.164;8.012;2023-04-07T10:09:28;95395.84;;;7.11;100.00
76374;BME280;65197;50.164;8.012;2023-04-07T10:11:55;95402.84;;;6.81;100.00
76374;BME280;65197;50.164;8.012;2023-04-07T10:14:29;95393.59;;;7.04;100.00
76374;BME280;65197;50.164;8.012;2023-04-07T10:16:55;95392.09;;;7.44;100.00
76374;BME280;65197;50.164;8.012;2023-04-07T10:19:21;95398.91;;;7.20;100.00
76374;BME280;65197;50.164;8.012;2023-04-07T10:21:50;95399.88;;;7.39;100.00
76374;BME280;65197;50.164;8.012;2023-04-07T10:24:55;95408.38;;;7.38;100.00
76374;BME280;65197;50.164;8.012;2023-04-07T10:27:32;95411.91;;;7.34;100.00
76374;BME280;65197;50.164;8.012;2023-04-07T10:29:59;95414.41;;;6.88;100.00
76374;BME280;65197;50.164;8.012;2023-04-07T10:32:25;95409.22;;;7.15;100.00
76374;BME280;65197;50.164;8.012;2023-04-07T10:37:19;95418.38;;;6.22;100.00
76374;BME280;65197;50.164;8.012;2023-04-07T10:39:49;95424.41;;;5.93;100.00
76374;BME280;65197;50.164;8.012;2023-04-07T10:45:06;95419.09;;;5.73;100.00
76374;BME280;65197;50.164;8.012;2023-04-07T10:47:33;95420.84;;;5.71;100.00
76374;BME280;65197;50.164;8.012;2023-04-07T10:50:20;95423.97;;;5.79;100.00
76374;BME280;65197;50.164;8.012;2023-04-07T10:52:47;95413.94;;;5.76;100.00
76374;BME280;65197;50.164;8.012;2023-04-07T10:58:20;95430.69;;;5.80;100.00
76374;BME280;65197;50.164;8.012;2023-04-07T11:03:24;95432.25;;;5.84;100.00
76374;BME280;65197;50.164;8.012;2023-04-07T11:05:51;95422.03;;;5.87;100.00
76374;BME280;65197;50.164;8.012;2023-04-07T11:08:38;95437.25;;;5.85;100.00
76374;BME280;65197;50.164;8.012;2023-04-07T11:11:05;95430.59;;;5.83;100.00
76374;BME280;65197;50.164;8.012;2023-04-07T11:13:59;95443.28;;;5.81;100.00
76374;BME280;65197;50.164;8.012;2023-04-07T11:16:40;95432.97;;;5.87;100.00
76374;BME280;65197;50.164;8.012;2023-04-07T11:19:06;95440.41;;;5.94;100.00
76374;BME280;65197;50.164;8.012;2023-04-07T11:21:32;95423.03;;;5.81;100.00
76374;BME280;65197;50.164;8.012;2023-04-07T11:23:57;95439.03;;;5.82;100.00
76374;BME280;65197;50.164;8.012;2023-04-07T11:26:23;95439.25;;;5.76;100.00
76374;BME280;65197;50.164;8.012;2023-04-07T11:28:49;95451.13;;;5.74;100.00
76374;BME280;65197;50.164;8.012;2023-04-07T11:31:26;95436.38;;;5.58;100.00
76374;BME280;65197;50.164;8.012;2023-04-07T11:34:03;95449.84;;;5.60;100.00
76374;BME280;65197;50.164;8.012;2023-04-07T11:36:33;95439.13;;;5.52;100.00
76374;BME280;65197;50.164;8.012;2023-04-07T11:38:59;95446.84;;;5.76;100.00
76374;BME280;65197;50.164;8.012;2023-04-07T11:41:27;95450.72;;;5.86;100.00
76374;BME280;65197;50.164;8.012;2023-04-07T11:44:10;95442.44;;;5.81;100.00
76374;BME280;65197;50.164;8.012;2023-04-07T11:46:58;95445.66;;;5.86;100.00
76374;BME280;65197;50.164;8.012;2023-04-07T11:49:23;95450.19;;;6.04;100.00
76374;BME280;65197;50.164;8.012;2023-04-07T11:52:00;95447.84;;;6.25;100.00
76374;BME280;65197;50.164;8.012;2023-04-07T11:54:38;95455.09;;;6.35;100.00
76374;BME280;65197;50.164;8.012;2023-04-07T11:57:03;95456.00;;;6.33;100.00
76374;BME280;65197;50.164;8.012;2023-04-07T11:59:28;95453.78;;;6.24;100.00
76374;BME280;65197;50.164;8.012;2023-04-07T12:01:54;95464.78;;;6.23;100.00
76374;BME280;65197;50.164;8.012;2023-04-07T12:04:19;95459.34;;;6.08;100.00
76374;BME280;65197;50.164;8.012;2023-04-07T12:06:46;95473.38;;;5.92;100.00
76374;BME280;65197;50.164;8.012;2023-04-07T12:09:26;95471.66;;;5.93;100.00
76374;BME280;65197;50.164;8.012;2023-04-07T12:11:53;95462.41;;;5.90;100.00
76374;BME280;65197;50.164;8.012;2023-04-07T12:14:19;95465.00;;;6.17;100.00
76374;BME280;65197;50.164;8.012;2023-04-07T12:16:45;95470.03;;;6.43;100.00
76374;BME280;65197;50.164;8.012;2023-04-07T12:19:10;95467.56;;;6.67;100.00
76374;BME280;65197;50.164;8.012;2023-04-07T12:21:36;95472.88;;;6.84;100.00
76374;BME280;65197;50.164;8.012;2023-04-07T12:24:01;95467.41;;;6.71;100.00
76374;BME280;65197;50.164;8.012;2023-04-07T12:26:27;95480.13;;;6.70;100.00
76374;BME280;65197;50.164;8.012;2023-04-07T12:28:53;95469.88;;;6.73;100.00
76374;BME280;65197;50.164;8.012;2023-04-07T12:31:19;95462.84;;;6.56;100.00
76374;BME280;65197;50.164;8.012;2023-04-07T12:33:44;95481.63;;;6.50;100.00
76374;BME280;65197;50.164;8.012;2023-04-07T12:36:10;95479.38;;;6.41;100.00
76374;BME280;65197;50.164;8.012;2023-04-07T12:38:36;95476.97;;;6.11;100.00
76374;BME280;65197;50.164;8.012;2023-04-07T12:41:01;95484.06;;;6.00;100.00
76374;BME280;65197;50.164;8.012;2023-04-07T12:43:30;95487.72;;;5.90;100.00
76374;BME280;65197;50.164;8.012;2023-04-07T12:45:55;95496.41;;;5.81;100.00
76374;BME280;65197;50.164;8.012;2023-04-07T12:48:21;95478.16;;;5.72;100.00
76374;BME280;65197;50.164;8.012;2023-04-07T12:50:48;95498.94;;;5.81;100.00
76374;BME280;65197;50.164;8.012;2023-04-07T12:53:13;95505.25;;;5.98;100.00
76374;BME280;65197;50.164;8.012;2023-04-07T12:55:38;95495.19;;;5.96;100.00
76374;BME280;65197;50.164;8.012;2023-04-07T12:58:04;95492.16;;;6.11;100.00
76374;BME280;65197;50.164;8.012;2023-04-07T13:00:29;95508.13;;;6.13;100.00
76374;BME280;65197;50.164;8.012;2023-04-07T13:02:55;95498.88;;;6.12;100.00
76374;BME280;65197;50.164;8.012;2023-04-07T13:05:21;95483.78;;;6.09;100.00
76374;BME280;65197;50.164;8.012;2023-04-07T13:07:46;95498.50;;;6.25;100.00
76374;BME280;65197;50.164;8.012;2023-04-07T13:10:15;95505.88;;;6.31;100.00
76374;BME280;65197;50.164;8.012;2023-04-07T13:12:40;95496.66;;;6.28;100.00
76374;BME280;65197;50.164;8.012;2023-04-07T13:15:06;95482.34;;;6.29;100.00
76374;BME280;65197;50.164;8.012;2023-04-07T13:17:32;95502.56;;;6.55;100.00